sensor_id;sensor_type;location;lat;lon;timestamp;P1;durP1;ratioP1;P2;durP2;ratioP2
13672;SDS011;6909;52.202;9.876;2022-08-19T00:00:34;7.82;;;6.90;;
13672;SDS011;6909;52.202;9.876;2022-08-19T00:03:02;7.65;;;6.72;;
13672;SDS011;6909;52.202;9.876;2022-08-19T00:05:28;6.68;;;6.05;;
13672;SDS011;6909;52.202;9.876;2022-08-19T00:07:56;8.85;;;7.03;;
13672;SDS011;6909;52.202;9.876;2022-08-19T00:10:23;9.88;;;7.22;;
13672;SDS011;6909;52.202;9.876;2022-08-19T00:12:50;8.07;;;7.28;;
13672;SDS011;6909;52.202;9.876;2022-08-19T00:15:18;8.60;;;7.20;;
13672;SDS011;6909;52.202;9.876;2022-08-19T00:17:47;8.70;;;7.33;;
13672;SDS011;6909;52.202;9.876;2022-08-19T00:20:15;7.65;;;6.43;;
13672;SDS011;6909;52.202;9.876;2022-08-19T00:22:45;8.70;;;6.57;;
13672;SDS011;6909;52.202;9.876;2022-08-19T00:25:14;8.07;;;6.73;;
13672;SDS011;6909;52.202;9.876;2022-08-19T00:27:41;7.37;;;6.67;;
13672;SDS011;6909;52.202;9.876;2022-08-19T00:30:08;7.93;;;6.40;;
13672;SDS011;6909;52.202;9.876;2022-08-19T00:32:36;9.10;;;7.13;;
13672;SDS011;6909;52.202;9.876;2022-08-19T00:35:04;8.87;;;7.10;;
13672;SDS011;6909;52.202;9.876;2022-08-19T00:37:31;7.50;;;6.73;;
13672;SDS011;6909;52.202;9.876;2022-08-19T00:39:59;11.40;;;7.30;;
13672;SDS011;6909;52.202;9.876;2022-08-19T00:42:29;7.30;;;6.60;;
13672;SDS011;6909;52.202;9.876;2022-08-19T00:44:55;8.17;;;6.90;;
13672;SDS011;6909;52.202;9.876;2022-08-19T00:47:22;7.93;;;7.13;;
13672;SDS011;6909;52.202;9.876;2022-08-19T00:49:49;8.43;;;6.77;;
13672;SDS011;6909;52.202;9.876;2022-08-19T00:52:19;8.00;;;7.20;;
13672;SDS011;6909;52.202;9.876;2022-08-19T00:54:49;7.30;;;6.60;;
13672;SDS011;6909;52.202;9.876;2022-08-19T00:57:18;8.20;;;7.33;;
13672;SDS011;6909;52.202;9.876;2022-08-19T00:59:53;8.13;;;6.93;;
13672;SDS011;6909;52.202;9.876;2022-08-19T01:02:21;9.03;;;6.73;;
13672;SDS011;6909;52.202;9.876;2022-08-19T01:04:48;7.43;;;6.73;;
13672;SDS011;6909;52.202;9.876;2022-08-19T01:07:15;7.13;;;6.47;;
13672;SDS011;6909;52.202;9.876;2022-08-19T01:09:42;8.33;;;7.27;;
13672;SDS011;6909;52.202;9.876;2022-08-19T01:12:09;8.70;;;7.17;;
13672;SDS011;6909;52.202;9.876;2022-08-19T01:14:36;8.57;;;7.30;;
13672;SDS011;6909;52.202;9.876;2022-08-19T01:17:06;7.33;;;6.57;;
13672;SDS011;6909;52.202;9.876;2022-08-19T01:19:36;7.13;;;6.43;;
13672;SDS011;6909;52.202;9.876;2022-08-19T01:22:07;9.63;;;7.47;;
13672;SDS011;6909;52.202;9.876;2022-08-19T01:24:39;8.73;;;7.20;;
13672;SDS011;6909;52.202;9.876;2022-08-19T01:27:06;8.83;;;6.60;;
13672;SDS011;6909;52.202;9.876;2022-08-19T01:29:33;9.37;;;6.37;;
13672;SDS011;6909;52.202;9.876;2022-08-19T01:32:03;10.00;;;7.10;;
13672;SDS011;6909;52.202;9.876;2022-08-19T01:34:32;9.63;;;6.73;;
13672;SDS011;6909;52.202;9.876;2022-08-19T01:37:00;7.50;;;6.70;;
13672;SDS011;6909;52.202;9.876;2022-08-19T01:39:33;7.47;;;6.73;;
13672;SDS011;6909;52.202;9.876;2022-08-19T01:42:01;9.70;;;6.87;;
13672;SDS011;6909;52.202;9.876;2022-08-19T01:44:29;8.37;;;7.57;;
13672;SDS011;6909;52.202;9.876;2022-08-19T01:46:56;9.87;;;7.57;;
13672;SDS011;6909;52.202;9.876;2022-08-19T01:49:23;8.87;;;7.10;;
13672;SDS011;6909;52.202;9.876;2022-08-19T01:51:51;7.47;;;6.73;;
13672;SDS011;6909;52.202;9.876;2022-08-19T01:54:20;8.70;;;7.57;;
13672;SDS011;6909;52.202;9.876;2022-08-19T01:56:48;9.97;;;7.93;;
13672;SDS011;6909;52.202;9.876;2022-08-19T01:59:17;10.00;;;7.70;;
13672;SDS011;6909;52.202;9.876;2022-08-19T02:01:47;8.10;;;7.30;;
13672;SDS011;6909;52.202;9.876;2022-08-19T02:04:14;8.40;;;7.60;;
13672;SDS011;6909;52.202;9.876;2022-08-19T02:06:40;7.33;;;6.60;;
13672;SDS011;6909;52.202;9.876;2022-08-19T02:09:07;8.73;;;7.40;;
13672;SDS011;6909;52.202;9.876;2022-08-19T02:11:35;8.87;;;7.17;;
13672;SDS011;6909;52.202;9.876;2022-08-19T02:14:04;10.20;;;7.90;;
13672;SDS011;6909;52.202;9.876;2022-08-19T02:16:34;9.77;;;7.47;;
13672;SDS011;6909;52.202;9.876;2022-08-19T02:19:02;8.53;;;7.63;;
13672;SDS011;6909;52.202;9.876;2022-08-19T02:21:29;10.13;;;7.67;;
13672;SDS011;6909;52.202;9.876;2022-08-19T02:23:57;8.03;;;7.23;;
13672;SDS011;6909;52.202;9.876;2022-08-19T02:26:24;8.67;;;7.40;;
13672;SDS011;6909;52.202;9.876;2022-08-19T02:28:51;9.63;;;7.10;;
13672;SDS011;6909;52.202;9.876;2022-08-19T02:31:19;9.60;;;7.10;;
13672;SDS011;6909;52.202;9.876;2022-08-19T02:33:49;10.00;;;7.30;;
13672;SDS011;6909;52.202;9.876;2022-08-19T02:36:17;8.77;;;7.87;;
13672;SDS011;6909;52.202;9.876;2022-08-19T02:38:44;10.57;;;7.73;;
13672;SDS011;6909;52.202;9.876;2022-08-19T02:41:11;9.67;;;7.60;;
13672;SDS011;6909;52.202;9.876;2022-08-19T02:43:39;9.77;;;8.00;;
13672;SDS011;6909;52.202;9.876;2022-08-19T02:46:11;9.03;;;7.67;;
13672;SDS011;6909;52.202;9.876;2022-08-19T02:48:39;8.73;;;7.83;;
13672;SDS011;6909;52.202;9.876;2022-08-19T02:51:07;10.67;;;7.47;;
13672;SDS011;6909;52.202;9.876;2022-08-19T02:53:34;7.87;;;6.43;;
13672;SDS011;6909;52.202;9.876;2022-08-19T02:56:00;7.90;;;7.13;;
13672;SDS011;6909;52.202;9.876;2022-08-19T02:58:31;9.53;;;7.73;;
13672;SDS011;6909;52.202;9.876;2022-08-19T03:00:58;9.17;;;7.37;;
13672;SDS011;6909;52.202;9.876;2022-08-19T03:03:25;9.60;;;7.93;;
13672;SDS011;6909;52.202;9.876;2022-08-19T03:06:01;9.00;;;7.90;;
13672;SDS011;6909;52.202;9.876;2022-08-19T03:08:31;9.93;;;7.70;;
13672;SDS011;6909;52.202;9.876;2022-08-19T03:10:57;9.90;;;7.33;;
13672;SDS011;6909;52.202;9.876;2022-08-19T03:13:24;9.90;;;8.00;;
13672;SDS011;6909;52.202;9.876;2022-08-19T03:15:51;8.93;;;7.27;;
13672;SDS011;6909;52.202;9.876;2022-08-19T03:18:17;12.77;;;8.27;;
13672;SDS011;6909;52.202;9.876;2022-08-19T03:20:45;9.63;;;8.50;;
13672;SDS011;6909;52.202;9.876;2022-08-19T03:23:13;8.87;;;7.97;;
13672;SDS011;6909;52.202;9.876;2022-08-19T03:25:43;10.30;;;7.47;;
13672;SDS011;6909;52.202;9.876;2022-08-19T03:28:11;10.77;;;8.60;;
13672;SDS011;6909;52.202;9.876;2022-08-19T03:30:40;9.43;;;7.80;;
13672;SDS011;6909;52.202;9.876;2022-08-19T03:33:08;11.40;;;8.13;;
13672;SDS011;6909;52.202;9.876;2022-08-19T03:35:36;10.17;;;7.37;;
13672;SDS011;6909;52.202;9.876;2022-08-19T03:38:03;8.90;;;7.33;;
13672;SDS011;6909;52.202;9.876;2022-08-19T03:40:31;9.63;;;8.63;;
13672;SDS011;6909;52.202;9.876;2022-08-19T03:43:01;9.53;;;8.50;;
13672;SDS011;6909;52.202;9.876;2022-08-19T03:45:27;10.00;;;8.13;;
13672;SDS011;6909;52.202;9.876;2022-08-19T03:47:54;9.00;;;8.03;;
13672;SDS011;6909;52.202;9.876;2022-08-19T03:50:21;11.33;;;7.87;;
13672;SDS011;6909;52.202;9.876;2022-08-19T03:52:48;9.60;;;7.70;;
13672;SDS011;6909;52.202;9.876;2022-08-19T03:55:16;14.17;;;8.00;;
13672;SDS011;6909;52.202;9.876;2022-08-19T03:57:43;10.07;;;8.13;;
13672;SDS011;6909;52.202;9.876;2022-08-19T04:00:12;9.17;;;7.93;;
13672;SDS011;6909;52.202;9.876;2022-08-19T04:02:40;10.77;;;8.33;;
13672;SDS011;6909;52.202;9.876;2022-08-19T04:05:08;10.47;;;7.87;;
13672;SDS011;6909;52.202;9.876;2022-08-19T04:07:35;10.60;;;8.03;;
13672;SDS011;6909;52.202;9.876;2022-08-19T04:10:02;8.83;;;7.67;;
13672;SDS011;6909;52.202;9.876;2022-08-19T04:12:29;10.97;;;8.30;;
13672;SDS011;6909;52.202;9.876;2022-08-19T04:14:56;9.97;;;7.97;;
13672;SDS011;6909;52.202;9.876;2022-08-19T04:17:24;10.90;;;8.27;;
13672;SDS011;6909;52.202;9.876;2022-08-19T04:19:51;10.20;;;8.33;;
13672;SDS011;6909;52.202;9.876;2022-08-19T04:22:17;10.50;;;8.83;;
13672;SDS011;6909;52.202;9.876;2022-08-19T04:24:44;10.13;;;8.23;;
13672;SDS011;6909;52.202;9.876;2022-08-19T04:27:11;9.70;;;8.13;;
13672;SDS011;6909;52.202;9.876;2022-08-19T04:29:37;9.20;;;8.20;;
13672;SDS011;6909;52.202;9.876;2022-08-19T04:32:05;9.70;;;7.80;;
13672;SDS011;6909;52.202;9.876;2022-08-19T04:34:33;9.90;;;8.43;;
13672;SDS011;6909;52.202;9.876;2022-08-19T04:37:00;10.80;;;8.47;;
13672;SDS011;6909;52.202;9.876;2022-08-19T04:39:28;11.40;;;8.37;;
13672;SDS011;6909;52.202;9.876;2022-08-19T04:42:10;13.67;;;8.60;;
13672;SDS011;6909;52.202;9.876;2022-08-19T04:44:54;10.17;;;7.63;;
13672;SDS011;6909;52.202;9.876;2022-08-19T04:47:21;9.20;;;7.60;;
13672;SDS011;6909;52.202;9.876;2022-08-19T04:49:49;10.60;;;7.40;;
13672;SDS011;6909;52.202;9.876;2022-08-19T04:52:16;11.93;;;8.60;;
13672;SDS011;6909;52.202;9.876;2022-08-19T04:54:42;8.57;;;7.17;;
13672;SDS011;6909;52.202;9.876;2022-08-19T04:57:09;8.77;;;7.33;;
13672;SDS011;6909;52.202;9.876;2022-08-19T04:59:36;9.57;;;7.77;;
13672;SDS011;6909;52.202;9.876;2022-08-19T05:02:04;11.13;;;8.57;;
13672;SDS011;6909;52.202;9.876;2022-08-19T05:04:32;11.60;;;8.27;;
13672;SDS011;6909;52.202;9.876;2022-08-19T05:07:01;9.13;;;7.73;;
13672;SDS011;6909;52.202;9.876;2022-08-19T05:09:28;9.53;;;8.33;;
13672;SDS011;6909;52.202;9.876;2022-08-19T05:11:55;10.13;;;7.67;;
13672;SDS011;6909;52.202;9.876;2022-08-19T05:14:21;12.63;;;8.13;;
13672;SDS011;6909;52.202;9.876;2022-08-19T05:16:48;10.27;;;7.83;;
13672;SDS011;6909;52.202;9.876;2022-08-19T05:19:15;7.83;;;6.50;;
13672;SDS011;6909;52.202;9.876;2022-08-19T05:21:59;8.20;;;6.93;;
13672;SDS011;6909;52.202;9.876;2022-08-19T05:24:45;10.03;;;7.47;;
13672;SDS011;6909;52.202;9.876;2022-08-19T05:27:11;7.43;;;6.73;;
13672;SDS011;6909;52.202;9.876;2022-08-19T05:29:38;10.43;;;7.70;;
13672;SDS011;6909;52.202;9.876;2022-08-19T05:32:05;7.57;;;6.03;;
13672;SDS011;6909;52.202;9.876;2022-08-19T05:34:33;7.50;;;6.27;;
13672;SDS011;6909;52.202;9.876;2022-08-19T05:37:02;7.30;;;6.40;;
13672;SDS011;6909;52.202;9.876;2022-08-19T05:39:30;6.93;;;6.23;;
13672;SDS011;6909;52.202;9.876;2022-08-19T05:42:01;8.13;;;6.70;;
13672;SDS011;6909;52.202;9.876;2022-08-19T05:44:33;9.73;;;6.77;;
13672;SDS011;6909;52.202;9.876;2022-08-19T05:47:01;8.87;;;6.00;;
13672;SDS011;6909;52.202;9.876;2022-08-19T05:49:30;7.73;;;6.33;;
13672;SDS011;6909;52.202;9.876;2022-08-19T05:51:57;7.83;;;6.83;;
13672;SDS011;6909;52.202;9.876;2022-08-19T05:54:25;6.87;;;6.07;;
13672;SDS011;6909;52.202;9.876;2022-08-19T05:56:52;8.15;;;6.50;;
13672;SDS011;6909;52.202;9.876;2022-08-19T05:59:19;7.60;;;6.23;;
13672;SDS011;6909;52.202;9.876;2022-08-19T06:01:50;6.72;;;6.00;;
13672;SDS011;6909;52.202;9.876;2022-08-19T06:04:19;7.47;;;6.40;;
13672;SDS011;6909;52.202;9.876;2022-08-19T06:06:47;7.47;;;5.83;;
13672;SDS011;6909;52.202;9.876;2022-08-19T06:09:15;9.45;;;6.03;;
13672;SDS011;6909;52.202;9.876;2022-08-19T06:11:43;8.10;;;6.93;;
13672;SDS011;6909;52.202;9.876;2022-08-19T06:14:13;7.77;;;6.70;;
13672;SDS011;6909;52.202;9.876;2022-08-19T06:16:43;6.47;;;5.63;;
13672;SDS011;6909;52.202;9.876;2022-08-19T06:19:11;9.10;;;6.67;;
13672;SDS011;6909;52.202;9.876;2022-08-19T06:21:41;7.35;;;6.30;;
13672;SDS011;6909;52.202;9.876;2022-08-19T06:24:11;8.30;;;7.10;;
13672;SDS011;6909;52.202;9.876;2022-08-19T06:26:40;8.57;;;7.73;;
13672;SDS011;6909;52.202;9.876;2022-08-19T06:29:10;7.67;;;6.83;;
13672;SDS011;6909;52.202;9.876;2022-08-19T06:31:40;8.80;;;7.17;;
13672;SDS011;6909;52.202;9.876;2022-08-19T06:34:09;10.33;;;7.63;;
13672;SDS011;6909;52.202;9.876;2022-08-19T06:36:37;9.40;;;7.03;;
13672;SDS011;6909;52.202;9.876;2022-08-19T06:39:08;9.43;;;7.80;;
13672;SDS011;6909;52.202;9.876;2022-08-19T06:41:37;10.97;;;8.00;;
13672;SDS011;6909;52.202;9.876;2022-08-19T06:44:08;11.10;;;8.33;;
13672;SDS011;6909;52.202;9.876;2022-08-19T06:46:36;10.57;;;9.00;;
13672;SDS011;6909;52.202;9.876;2022-08-19T06:49:03;12.50;;;9.25;;
13672;SDS011;6909;52.202;9.876;2022-08-19T06:51:31;12.35;;;9.20;;
13672;SDS011;6909;52.202;9.876;2022-08-19T06:53:59;12.83;;;9.03;;
13672;SDS011;6909;52.202;9.876;2022-08-19T06:56:28;11.77;;;9.15;;
13672;SDS011;6909;52.202;9.876;2022-08-19T06:58:56;11.93;;;10.10;;
13672;SDS011;6909;52.202;9.876;2022-08-19T07:01:24;11.70;;;9.37;;
13672;SDS011;6909;52.202;9.876;2022-08-19T07:03:51;13.07;;;9.77;;
13672;SDS011;6909;52.202;9.876;2022-08-19T07:06:18;15.50;;;10.75;;
13672;SDS011;6909;52.202;9.876;2022-08-19T07:08:46;15.95;;;10.48;;
13672;SDS011;6909;52.202;9.876;2022-08-19T07:11:15;13.90;;;9.98;;
13672;SDS011;6909;52.202;9.876;2022-08-19T07:13:46;13.50;;;9.73;;
13672;SDS011;6909;52.202;9.876;2022-08-19T07:16:14;12.70;;;10.07;;
13672;SDS011;6909;52.202;9.876;2022-08-19T07:18:45;14.45;;;9.65;;
13672;SDS011;6909;52.202;9.876;2022-08-19T07:21:13;11.70;;;9.15;;
13672;SDS011;6909;52.202;9.876;2022-08-19T07:23:41;12.00;;;9.30;;
13672;SDS011;6909;52.202;9.876;2022-08-19T07:26:09;11.40;;;9.23;;
13672;SDS011;6909;52.202;9.876;2022-08-19T07:28:39;11.35;;;9.07;;
13672;SDS011;6909;52.202;9.876;2022-08-19T07:31:09;12.27;;;9.55;;
13672;SDS011;6909;52.202;9.876;2022-08-19T07:33:37;12.52;;;9.65;;
13672;SDS011;6909;52.202;9.876;2022-08-19T07:36:07;10.95;;;9.38;;
13672;SDS011;6909;52.202;9.876;2022-08-19T07:38:36;11.10;;;9.35;;
13672;SDS011;6909;52.202;9.876;2022-08-19T07:41:04;10.82;;;9.13;;
13672;SDS011;6909;52.202;9.876;2022-08-19T07:43:31;10.77;;;9.23;;
13672;SDS011;6909;52.202;9.876;2022-08-19T07:45:58;10.35;;;8.13;;
13672;SDS011;6909;52.202;9.876;2022-08-19T07:48:25;10.70;;;8.80;;
13672;SDS011;6909;52.202;9.876;2022-08-19T07:50:53;9.50;;;8.43;;
13672;SDS011;6909;52.202;9.876;2022-08-19T07:53:23;10.52;;;8.05;;
13672;SDS011;6909;52.202;9.876;2022-08-19T07:55:50;8.68;;;7.63;;
13672;SDS011;6909;52.202;9.876;2022-08-19T07:58:18;10.00;;;8.30;;
13672;SDS011;6909;52.202;9.876;2022-08-19T08:00:48;8.50;;;7.38;;
13672;SDS011;6909;52.202;9.876;2022-08-19T08:03:17;9.20;;;7.45;;
13672;SDS011;6909;52.202;9.876;2022-08-19T08:05:45;8.65;;;7.57;;
13672;SDS011;6909;52.202;9.876;2022-08-19T08:08:45;8.73;;;7.57;;
13672;SDS011;6909;52.202;9.876;2022-08-19T08:11:30;9.07;;;7.55;;
13672;SDS011;6909;52.202;9.876;2022-08-19T08:13:57;8.32;;;7.40;;
13672;SDS011;6909;52.202;9.876;2022-08-19T08:16:23;9.80;;;7.82;;
13672;SDS011;6909;52.202;9.876;2022-08-19T08:18:54;8.38;;;7.20;;
13672;SDS011;6909;52.202;9.876;2022-08-19T08:21:21;8.35;;;6.75;;
13672;SDS011;6909;52.202;9.876;2022-08-19T08:23:49;8.85;;;6.65;;
13672;SDS011;6909;52.202;9.876;2022-08-19T08:26:16;7.70;;;6.85;;
13672;SDS011;6909;52.202;9.876;2022-08-19T08:28:43;9.73;;;8.10;;
13672;SDS011;6909;52.202;9.876;2022-08-19T08:31:12;14.35;;;8.88;;
13672;SDS011;6909;52.202;9.876;2022-08-19T08:33:39;8.05;;;7.25;;
13672;SDS011;6909;52.202;9.876;2022-08-19T08:36:07;6.53;;;5.88;;
13672;SDS011;6909;52.202;9.876;2022-08-19T08:38:34;6.85;;;5.82;;
13672;SDS011;6909;52.202;9.876;2022-08-19T08:41:05;7.75;;;6.95;;
13672;SDS011;6909;52.202;9.876;2022-08-19T08:43:39;7.57;;;6.88;;
13672;SDS011;6909;52.202;9.876;2022-08-19T08:46:09;7.90;;;7.13;;
13672;SDS011;6909;52.202;9.876;2022-08-19T08:48:41;8.07;;;7.28;;
13672;SDS011;6909;52.202;9.876;2022-08-19T08:51:16;6.93;;;6.03;;
13672;SDS011;6909;52.202;9.876;2022-08-19T08:53:49;6.70;;;5.28;;
13672;SDS011;6909;52.202;9.876;2022-08-19T08:56:19;7.00;;;6.30;;
13672;SDS011;6909;52.202;9.876;2022-08-19T08:58:49;6.35;;;5.75;;
13672;SDS011;6909;52.202;9.876;2022-08-19T09:01:21;6.60;;;5.88;;
13672;SDS011;6909;52.202;9.876;2022-08-19T09:03:48;5.72;;;5.22;;
13672;SDS011;6909;52.202;9.876;2022-08-19T09:06:17;6.90;;;5.80;;
13672;SDS011;6909;52.202;9.876;2022-08-19T09:08:53;6.18;;;5.45;;
13672;SDS011;6909;52.202;9.876;2022-08-19T09:11:33;5.60;;;5.10;;
13672;SDS011;6909;52.202;9.876;2022-08-19T09:14:12;5.38;;;4.88;;
13672;SDS011;6909;52.202;9.876;2022-08-19T09:16:48;6.05;;;4.72;;
13672;SDS011;6909;52.202;9.876;2022-08-19T09:19:16;6.60;;;4.85;;
13672;SDS011;6909;52.202;9.876;2022-08-19T09:21:43;7.00;;;4.95;;
13672;SDS011;6909;52.202;9.876;2022-08-19T09:24:10;6.80;;;5.18;;
13672;SDS011;6909;52.202;9.876;2022-08-19T09:26:38;5.70;;;4.95;;
13672;SDS011;6909;52.202;9.876;2022-08-19T09:29:05;5.93;;;4.68;;
13672;SDS011;6909;52.202;9.876;2022-08-19T09:31:32;5.80;;;5.22;;
13672;SDS011;6909;52.202;9.876;2022-08-19T09:33:59;4.95;;;4.55;;
13672;SDS011;6909;52.202;9.876;2022-08-19T09:36:29;4.65;;;4.20;;
13672;SDS011;6909;52.202;9.876;2022-08-19T09:38:58;8.07;;;4.80;;
13672;SDS011;6909;52.202;9.876;2022-08-19T09:41:26;5.13;;;4.72;;
13672;SDS011;6909;52.202;9.876;2022-08-19T09:43:55;3.80;;;3.50;;
13672;SDS011;6909;52.202;9.876;2022-08-19T09:46:23;4.78;;;3.50;;
13672;SDS011;6909;52.202;9.876;2022-08-19T09:48:51;4.57;;;3.70;;
13672;SDS011;6909;52.202;9.876;2022-08-19T09:51:18;4.93;;;4.53;;
13672;SDS011;6909;52.202;9.876;2022-08-19T09:53:47;7.50;;;5.05;;
13672;SDS011;6909;52.202;9.876;2022-08-19T09:56:16;4.95;;;4.55;;
13672;SDS011;6909;52.202;9.876;2022-08-19T09:58:44;5.90;;;5.13;;
13672;SDS011;6909;52.202;9.876;2022-08-19T10:01:16;5.03;;;4.20;;
13672;SDS011;6909;52.202;9.876;2022-08-19T10:03:46;5.03;;;3.38;;
13672;SDS011;6909;52.202;9.876;2022-08-19T10:06:14;4.80;;;4.32;;
13672;SDS011;6909;52.202;9.876;2022-08-19T10:08:41;5.85;;;5.03;;
13672;SDS011;6909;52.202;9.876;2022-08-19T10:11:07;5.75;;;5.03;;
13672;SDS011;6909;52.202;9.876;2022-08-19T10:13:35;5.22;;;4.53;;
13672;SDS011;6909;52.202;9.876;2022-08-19T10:16:03;5.13;;;4.60;;
13672;SDS011;6909;52.202;9.876;2022-08-19T10:18:33;5.40;;;4.90;;
13672;SDS011;6909;52.202;9.876;2022-08-19T10:21:04;5.88;;;4.63;;
13672;SDS011;6909;52.202;9.876;2022-08-19T10:23:36;7.05;;;4.22;;
13672;SDS011;6909;52.202;9.876;2022-08-19T10:26:03;4.82;;;3.63;;
13672;SDS011;6909;52.202;9.876;2022-08-19T10:28:31;4.85;;;2.97;;
13672;SDS011;6909;52.202;9.876;2022-08-19T10:31:03;2.97;;;2.67;;
13672;SDS011;6909;52.202;9.876;2022-08-19T10:33:32;3.78;;;2.53;;
13672;SDS011;6909;52.202;9.876;2022-08-19T10:36:00;3.58;;;3.28;;
13672;SDS011;6909;52.202;9.876;2022-08-19T10:38:27;5.80;;;3.65;;
13672;SDS011;6909;52.202;9.876;2022-08-19T10:40:54;3.30;;;2.25;;
13672;SDS011;6909;52.202;9.876;2022-08-19T10:43:21;2.35;;;2.13;;
13672;SDS011;6909;52.202;9.876;2022-08-19T10:45:51;2.00;;;1.88;;
13672;SDS011;6909;52.202;9.876;2022-08-19T10:48:19;2.40;;;1.70;;
13672;SDS011;6909;52.202;9.876;2022-08-19T10:50:47;2.50;;;1.85;;
13672;SDS011;6909;52.202;9.876;2022-08-19T10:53:32;2.33;;;2.00;;
13672;SDS011;6909;52.202;9.876;2022-08-19T10:55:58;2.83;;;1.80;;
13672;SDS011;6909;52.202;9.876;2022-08-19T10:58:43;1.70;;;1.60;;
13672;SDS011;6909;52.202;9.876;2022-08-19T11:01:09;1.48;;;1.38;;
13672;SDS011;6909;52.202;9.876;2022-08-19T11:03:36;1.50;;;1.40;;
13672;SDS011;6909;52.202;9.876;2022-08-19T11:06:05;2.25;;;1.80;;
13672;SDS011;6909;52.202;9.876;2022-08-19T11:08:34;2.00;;;1.58;;
13672;SDS011;6909;52.202;9.876;2022-08-19T11:11:03;1.90;;;1.67;;
13672;SDS011;6909;52.202;9.876;2022-08-19T11:13:33;1.75;;;1.30;;
13672;SDS011;6909;52.202;9.876;2022-08-19T11:16:03;1.60;;;1.50;;
13672;SDS011;6909;52.202;9.876;2022-08-19T11:18:31;1.52;;;1.42;;
13672;SDS011;6909;52.202;9.876;2022-08-19T11:21:06;1.27;;;1.20;;
13672;SDS011;6909;52.202;9.876;2022-08-19T11:23:34;1.50;;;1.40;;
13672;SDS011;6909;52.202;9.876;2022-08-19T11:26:01;2.92;;;1.40;;
13672;SDS011;6909;52.202;9.876;2022-08-19T11:28:30;1.50;;;1.30;;
13672;SDS011;6909;52.202;9.876;2022-08-19T11:30:58;1.75;;;1.65;;
13672;SDS011;6909;52.202;9.876;2022-08-19T11:33:25;1.40;;;1.30;;
13672;SDS011;6909;52.202;9.876;2022-08-19T11:35:52;2.17;;;1.90;;
13672;SDS011;6909;52.202;9.876;2022-08-19T11:38:20;2.22;;;1.75;;
13672;SDS011;6909;52.202;9.876;2022-08-19T11:40:53;1.88;;;1.50;;
13672;SDS011;6909;52.202;9.876;2022-08-19T11:43:21;1.73;;;1.40;;
13672;SDS011;6909;52.202;9.876;2022-08-19T11:45:47;1.40;;;1.30;;
13672;SDS011;6909;52.202;9.876;2022-08-19T11:48:14;2.33;;;1.67;;
13672;SDS011;6909;52.202;9.876;2022-08-19T11:50:41;1.65;;;1.38;;
13672;SDS011;6909;52.202;9.876;2022-08-19T11:53:08;1.40;;;1.30;;
13672;SDS011;6909;52.202;9.876;2022-08-19T11:55:37;1.60;;;1.50;;
13672;SDS011;6909;52.202;9.876;2022-08-19T11:58:05;1.63;;;1.45;;
13672;SDS011;6909;52.202;9.876;2022-08-19T12:00:32;2.15;;;1.40;;
13672;SDS011;6909;52.202;9.876;2022-08-19T12:03:00;1.20;;;1.10;;
13672;SDS011;6909;52.202;9.876;2022-08-19T12:05:27;1.23;;;1.20;;
13672;SDS011;6909;52.202;9.876;2022-08-19T12:07:53;2.47;;;1.58;;
13672;SDS011;6909;52.202;9.876;2022-08-19T12:10:21;1.30;;;1.20;;
13672;SDS011;6909;52.202;9.876;2022-08-19T12:12:49;2.70;;;1.50;;
13672;SDS011;6909;52.202;9.876;2022-08-19T12:15:16;1.55;;;1.45;;
13672;SDS011;6909;52.202;9.876;2022-08-19T12:17:43;4.97;;;1.60;;
13672;SDS011;6909;52.202;9.876;2022-08-19T12:20:10;2.33;;;2.13;;
13672;SDS011;6909;52.202;9.876;2022-08-19T12:22:40;2.20;;;2.00;;
13672;SDS011;6909;52.202;9.876;2022-08-19T12:25:07;2.90;;;1.65;;
13672;SDS011;6909;52.202;9.876;2022-08-19T12:27:35;1.67;;;1.58;;
13672;SDS011;6909;52.202;9.876;2022-08-19T12:30:04;1.40;;;1.17;;
13672;SDS011;6909;52.202;9.876;2022-08-19T12:32:32;1.45;;;1.33;;
13672;SDS011;6909;52.202;9.876;2022-08-19T12:34:59;1.20;;;1.10;;
13672;SDS011;6909;52.202;9.876;2022-08-19T12:37:26;1.00;;;1.00;;
13672;SDS011;6909;52.202;9.876;2022-08-19T12:39:53;3.63;;;1.45;;
13672;SDS011;6909;52.202;9.876;2022-08-19T12:42:20;1.38;;;1.27;;
13672;SDS011;6909;52.202;9.876;2022-08-19T12:44:47;1.95;;;1.85;;
13672;SDS011;6909;52.202;9.876;2022-08-19T12:47:15;1.42;;;1.33;;
13672;SDS011;6909;52.202;9.876;2022-08-19T12:49:42;2.08;;;1.20;;
13672;SDS011;6909;52.202;9.876;2022-08-19T12:52:09;1.98;;;1.30;;
13672;SDS011;6909;52.202;9.876;2022-08-19T12:54:40;1.30;;;1.30;;
13672;SDS011;6909;52.202;9.876;2022-08-19T12:57:07;2.13;;;1.25;;
13672;SDS011;6909;52.202;9.876;2022-08-19T12:59:35;2.28;;;1.25;;
13672;SDS011;6909;52.202;9.876;2022-08-19T13:02:02;1.85;;;1.75;;
13672;SDS011;6909;52.202;9.876;2022-08-19T13:04:31;1.73;;;1.50;;
13672;SDS011;6909;52.202;9.876;2022-08-19T13:07:00;1.60;;;1.30;;
13672;SDS011;6909;52.202;9.876;2022-08-19T13:09:27;1.40;;;1.30;;
13672;SDS011;6909;52.202;9.876;2022-08-19T13:11:54;1.67;;;1.23;;
13672;SDS011;6909;52.202;9.876;2022-08-19T13:14:21;2.30;;;1.48;;
13672;SDS011;6909;52.202;9.876;2022-08-19T13:16:48;1.60;;;1.42;;
13672;SDS011;6909;52.202;9.876;2022-08-19T13:19:14;1.90;;;1.70;;
13672;SDS011;6909;52.202;9.876;2022-08-19T13:21:48;1.63;;;1.42;;
13672;SDS011;6909;52.202;9.876;2022-08-19T13:24:15;1.50;;;1.40;;
13672;SDS011;6909;52.202;9.876;2022-08-19T13:26:43;1.58;;;1.33;;
13672;SDS011;6909;52.202;9.876;2022-08-19T13:29:09;1.95;;;1.27;;
13672;SDS011;6909;52.202;9.876;2022-08-19T13:31:53;1.48;;;1.23;;
13672;SDS011;6909;52.202;9.876;2022-08-19T13:34:37;1.63;;;1.35;;
13672;SDS011;6909;52.202;9.876;2022-08-19T13:37:05;1.80;;;1.20;;
13672;SDS011;6909;52.202;9.876;2022-08-19T13:39:33;1.30;;;1.20;;
13672;SDS011;6909;52.202;9.876;2022-08-19T13:42:01;1.10;;;0.93;;
13672;SDS011;6909;52.202;9.876;2022-08-19T13:44:29;0.98;;;0.98;;
13672;SDS011;6909;52.202;9.876;2022-08-19T13:46:59;1.02;;;1.02;;
13672;SDS011;6909;52.202;9.876;2022-08-19T13:49:31;1.52;;;1.05;;
13672;SDS011;6909;52.202;9.876;2022-08-19T13:52:01;1.10;;;1.10;;
13672;SDS011;6909;52.202;9.876;2022-08-19T13:54:30;1.00;;;1.00;;
13672;SDS011;6909;52.202;9.876;2022-08-19T13:56:57;1.30;;;1.20;;
13672;SDS011;6909;52.202;9.876;2022-08-19T13:59:23;1.23;;;1.13;;
13672;SDS011;6909;52.202;9.876;2022-08-19T14:01:50;1.33;;;1.23;;
13672;SDS011;6909;52.202;9.876;2022-08-19T14:04:18;1.67;;;1.38;;
13672;SDS011;6909;52.202;9.876;2022-08-19T14:06:44;1.83;;;1.30;;
13672;SDS011;6909;52.202;9.876;2022-08-19T14:09:11;1.00;;;1.00;;
13672;SDS011;6909;52.202;9.876;2022-08-19T14:11:39;1.38;;;1.10;;
13672;SDS011;6909;52.202;9.876;2022-08-19T14:14:06;2.20;;;1.00;;
13672;SDS011;6909;52.202;9.876;2022-08-19T14:16:32;2.28;;;1.15;;
13672;SDS011;6909;52.202;9.876;2022-08-19T14:18:59;1.48;;;1.38;;
13672;SDS011;6909;52.202;9.876;2022-08-19T14:21:25;1.88;;;1.02;;
13672;SDS011;6909;52.202;9.876;2022-08-19T14:23:52;1.73;;;0.90;;
13672;SDS011;6909;52.202;9.876;2022-08-19T14:26:19;3.13;;;1.20;;
13672;SDS011;6909;52.202;9.876;2022-08-19T14:28:50;1.08;;;1.00;;
13672;SDS011;6909;52.202;9.876;2022-08-19T14:31:18;1.23;;;1.13;;
13672;SDS011;6909;52.202;9.876;2022-08-19T14:33:46;1.10;;;1.00;;
13672;SDS011;6909;52.202;9.876;2022-08-19T14:36:13;1.10;;;1.00;;
13672;SDS011;6909;52.202;9.876;2022-08-19T14:38:40;1.33;;;1.10;;
13672;SDS011;6909;52.202;9.876;2022-08-19T14:41:11;1.77;;;1.42;;
13672;SDS011;6909;52.202;9.876;2022-08-19T14:43:41;1.60;;;1.20;;
13672;SDS011;6909;52.202;9.876;2022-08-19T14:46:11;1.65;;;1.40;;
13672;SDS011;6909;52.202;9.876;2022-08-19T14:48:39;1.80;;;1.20;;
13672;SDS011;6909;52.202;9.876;2022-08-19T14:51:06;1.30;;;1.20;;
13672;SDS011;6909;52.202;9.876;2022-08-19T14:53:33;4.28;;;1.30;;
13672;SDS011;6909;52.202;9.876;2022-08-19T14:56:00;2.60;;;1.48;;
13672;SDS011;6909;52.202;9.876;2022-08-19T14:58:27;1.33;;;1.23;;
13672;SDS011;6909;52.202;9.876;2022-08-19T15:00:54;1.60;;;1.50;;
13672;SDS011;6909;52.202;9.876;2022-08-19T15:03:21;1.88;;;1.40;;
13672;SDS011;6909;52.202;9.876;2022-08-19T15:05:48;1.25;;;1.23;;